Terminal Aerodrome Forecast
Issued by NWS Twin Cities, MN

Home | Current Version | Previous Version | Text Only | Print | Product List | Glossary On
Versions: 1 2 3 4 5 6 7 8 9 10 11 12 13 14
000
FTUS43 KMPX 290500
TAFEAU
TAF
KEAU 290527Z 2906/3006 28003KT P6SM SCT060
      TEMPO 2906/2910 BKN060
     FM291500 31008KT P6SM BKN050
     FM291800 31011KT P6SM VCSH BKN050
     FM300100 30004KT P6SM SCT060=

USA.gov is the U.S. government's official web portal to all federal, state and local government web resources and services.